sensor_id;sensor_type;location;lat;lon;timestamp;temperature;humidity
17893;DHT22;9072;51.918;4.380;2024-01-07T00:02:30;3.40;99.90
17893;DHT22;9072;51.918;4.380;2024-01-07T00:05:01;3.40;99.90
17893;DHT22;9072;51.918;4.380;2024-01-07T00:07:41;3.40;99.90
17893;DHT22;9072;51.918;4.380;2024-01-07T00:10:14;3.40;99.90
17893;DHT22;9072;51.918;4.380;2024-01-07T00:12:41;3.40;99.90
17893;DHT22;9072;51.918;4.380;2024-01-07T00:15:12;3.30;99.90
17893;DHT22;9072;51.918;4.380;2024-01-07T00:17:42;3.30;99.90
17893;DHT22;9072;51.918;4.380;2024-01-07T00:20:11;3.40;99.90
17893;DHT22;9072;51.918;4.380;2024-01-07T00:22:44;3.40;99.90
17893;DHT22;9072;51.918;4.380;2024-01-07T00:25:14;3.40;99.90
17893;DHT22;9072;51.918;4.380;2024-01-07T00:27:45;3.40;99.90
17893;DHT22;9072;51.918;4.380;2024-01-07T00:30:15;3.40;99.90
17893;DHT22;9072;51.918;4.380;2024-01-07T00:32:44;3.40;99.90
17893;DHT22;9072;51.918;4.380;2024-01-07T00:35:12;3.40;99.90
17893;DHT22;9072;51.918;4.380;2024-01-07T00:37:42;3.30;99.90
17893;DHT22;9072;51.918;4.380;2024-01-07T00:40:15;3.40;99.90
17893;DHT22;9072;51.918;4.380;2024-01-07T00:42:50;3.40;99.90
17893;DHT22;9072;51.918;4.380;2024-01-07T00:45:22;3.40;99.90
17893;DHT22;9072;51.918;4.380;2024-01-07T00:47:51;3.30;99.90
17893;DHT22;9072;51.918;4.380;2024-01-07T00:50:25;3.30;99.90
17893;DHT22;9072;51.918;4.380;2024-01-07T00:52:53;3.30;99.90
17893;DHT22;9072;51.918;4.380;2024-01-07T00:55:20;3.30;99.90
17893;DHT22;9072;51.918;4.380;2024-01-07T00:58:01;3.30;99.90
17893;DHT22;9072;51.918;4.380;2024-01-07T01:00:30;3.30;99.90
17893;DHT22;9072;51.918;4.380;2024-01-07T01:03:03;3.30;99.90
17893;DHT22;9072;51.918;4.380;2024-01-07T01:05:30;3.20;99.90
17893;DHT22;9072;51.918;4.380;2024-01-07T01:08:08;3.20;99.90
17893;DHT22;9072;51.918;4.380;2024-01-07T01:10:50;3.30;99.90
17893;DHT22;9072;51.918;4.380;2024-01-07T01:13:18;3.30;99.90
17893;DHT22;9072;51.918;4.380;2024-01-07T01:15:52;3.20;99.90
17893;DHT22;9072;51.918;4.380;2024-01-07T01:21:27;3.20;99.90
17893;DHT22;9072;51.918;4.380;2024-01-07T01:23:59;3.20;99.90
17893;DHT22;9072;51.918;4.380;2024-01-07T01:26:36;3.10;99.90
17893;DHT22;9072;51.918;4.380;2024-01-07T01:29:07;3.20;99.90
17893;DHT22;9072;51.918;4.380;2024-01-07T01:31:37;3.20;99.90
17893;DHT22;9072;51.918;4.380;2024-01-07T01:34:08;3.20;99.90
17893;DHT22;9072;51.918;4.380;2024-01-07T01:36:40;3.20;99.90
17893;DHT22;9072;51.918;4.380;2024-01-07T01:39:08;3.20;99.90
17893;DHT22;9072;51.918;4.380;2024-01-07T01:41:37;3.10;99.90
17893;DHT22;9072;51.918;4.380;2024-01-07T01:44:07;3.20;99.90
17893;DHT22;9072;51.918;4.380;2024-01-07T01:46:41;3.10;99.90
17893;DHT22;9072;51.918;4.380;2024-01-07T01:49:26;3.10;99.90
17893;DHT22;9072;51.918;4.380;2024-01-07T01:52:02;3.10;99.90
17893;DHT22;9072;51.918;4.380;2024-01-07T01:54:37;3.10;99.90
17893;DHT22;9072;51.918;4.380;2024-01-07T01:57:13;3.10;99.90
17893;DHT22;9072;51.918;4.380;2024-01-07T01:59:55;3.10;99.90
17893;DHT22;9072;51.918;4.380;2024-01-07T02:02:29;3.10;99.90
17893;DHT22;9072;51.918;4.380;2024-01-07T02:05:06;3.00;99.90
17893;DHT22;9072;51.918;4.380;2024-01-07T02:07:37;3.00;99.90
17893;DHT22;9072;51.918;4.380;2024-01-07T02:10:17;2.90;99.90
17893;DHT22;9072;51.918;4.380;2024-01-07T02:12:45;2.90;99.90
17893;DHT22;9072;51.918;4.380;2024-01-07T02:15:15;2.90;99.90
17893;DHT22;9072;51.918;4.380;2024-01-07T02:17:44;2.90;99.90
17893;DHT22;9072;51.918;4.380;2024-01-07T02:20:12;2.90;99.90
17893;DHT22;9072;51.918;4.380;2024-01-07T02:23:07;2.90;99.90
17893;DHT22;9072;51.918;4.380;2024-01-07T02:25:57;2.90;99.90
17893;DHT22;9072;51.918;4.380;2024-01-07T02:28:26;2.90;99.90
17893;DHT22;9072;51.918;4.380;2024-01-07T02:30:57;2.80;99.90
17893;DHT22;9072;51.918;4.380;2024-01-07T02:33:26;2.80;99.90
17893;DHT22;9072;51.918;4.380;2024-01-07T02:35:54;2.80;99.90
17893;DHT22;9072;51.918;4.380;2024-01-07T02:38:41;2.80;99.90
17893;DHT22;9072;51.918;4.380;2024-01-07T02:41:17;2.80;99.90
17893;DHT22;9072;51.918;4.380;2024-01-07T02:43:51;2.80;99.90
17893;DHT22;9072;51.918;4.380;2024-01-07T02:46:19;2.80;99.90
17893;DHT22;9072;51.918;4.380;2024-01-07T02:48:50;2.80;99.90
17893;DHT22;9072;51.918;4.380;2024-01-07T02:51:36;2.80;99.90
17893;DHT22;9072;51.918;4.380;2024-01-07T02:54:08;2.80;99.90
17893;DHT22;9072;51.918;4.380;2024-01-07T02:56:57;2.80;99.90
17893;DHT22;9072;51.918;4.380;2024-01-07T02:59:25;2.80;99.90
17893;DHT22;9072;51.918;4.380;2024-01-07T03:02:03;2.80;99.90
17893;DHT22;9072;51.918;4.380;2024-01-07T03:04:38;2.70;99.90
17893;DHT22;9072;51.918;4.380;2024-01-07T03:07:33;2.70;99.90
17893;DHT22;9072;51.918;4.380;2024-01-07T03:10:06;2.70;99.90
17893;DHT22;9072;51.918;4.380;2024-01-07T03:12:48;2.60;99.90
17893;DHT22;9072;51.918;4.380;2024-01-07T03:15:21;2.70;99.90
17893;DHT22;9072;51.918;4.380;2024-01-07T03:17:57;2.70;99.90
17893;DHT22;9072;51.918;4.380;2024-01-07T03:20:53;2.70;99.90
17893;DHT22;9072;51.918;4.380;2024-01-07T03:23:21;2.70;99.90
17893;DHT22;9072;51.918;4.380;2024-01-07T03:25:52;2.70;99.90
17893;DHT22;9072;51.918;4.380;2024-01-07T03:28:22;2.70;99.90
17893;DHT22;9072;51.918;4.380;2024-01-07T03:30:53;2.60;99.90
17893;DHT22;9072;51.918;4.380;2024-01-07T03:33:25;2.70;99.90
17893;DHT22;9072;51.918;4.380;2024-01-07T03:35:56;2.70;99.90
17893;DHT22;9072;51.918;4.380;2024-01-07T03:38:31;2.60;99.90
17893;DHT22;9072;51.918;4.380;2024-01-07T03:41:05;2.70;99.90
17893;DHT22;9072;51.918;4.380;2024-01-07T03:44:00;2.70;99.90
17893;DHT22;9072;51.918;4.380;2024-01-07T03:46:29;2.70;99.90
17893;DHT22;9072;51.918;4.380;2024-01-07T03:49:04;2.70;99.90
17893;DHT22;9072;51.918;4.380;2024-01-07T03:51:33;2.70;99.90
17893;DHT22;9072;51.918;4.380;2024-01-07T03:54:10;2.60;99.90
17893;DHT22;9072;51.918;4.380;2024-01-07T03:56:39;2.50;99.90
17893;DHT22;9072;51.918;4.380;2024-01-07T03:59:13;2.50;99.90
17893;DHT22;9072;51.918;4.380;2024-01-07T04:01:57;2.60;99.90
17893;DHT22;9072;51.918;4.380;2024-01-07T04:04:44;2.50;99.90
17893;DHT22;9072;51.918;4.380;2024-01-07T04:07:14;2.60;99.90
17893;DHT22;9072;51.918;4.380;2024-01-07T04:09:45;2.50;99.90
17893;DHT22;9072;51.918;4.380;2024-01-07T04:12:20;2.60;99.90
17893;DHT22;9072;51.918;4.380;2024-01-07T04:14:50;2.60;99.90
17893;DHT22;9072;51.918;4.380;2024-01-07T04:17:26;2.50;99.90
17893;DHT22;9072;51.918;4.380;2024-01-07T04:19:58;2.50;99.90
17893;DHT22;9072;51.918;4.380;2024-01-07T04:22:25;2.50;99.90
17893;DHT22;9072;51.918;4.380;2024-01-07T04:24:57;2.50;99.90
17893;DHT22;9072;51.918;4.380;2024-01-07T04:27:32;2.50;99.90
17893;DHT22;9072;51.918;4.380;2024-01-07T04:30:15;2.60;99.90
17893;DHT22;9072;51.918;4.380;2024-01-07T04:32:48;2.60;99.90
17893;DHT22;9072;51.918;4.380;2024-01-07T04:35:16;2.70;99.90
17893;DHT22;9072;51.918;4.380;2024-01-07T04:37:46;2.70;99.90
17893;DHT22;9072;51.918;4.380;2024-01-07T04:40:17;2.60;99.90
17893;DHT22;9072;51.918;4.380;2024-01-07T04:43:06;2.60;99.90
17893;DHT22;9072;51.918;4.380;2024-01-07T04:45:47;2.70;99.90
17893;DHT22;9072;51.918;4.380;2024-01-07T04:48:19;2.60;99.90
17893;DHT22;9072;51.918;4.380;2024-01-07T04:50:51;2.60;99.90
17893;DHT22;9072;51.918;4.380;2024-01-07T04:53:19;2.70;99.90
17893;DHT22;9072;51.918;4.380;2024-01-07T04:55:48;2.70;99.90
17893;DHT22;9072;51.918;4.380;2024-01-07T04:58:19;2.60;99.90
17893;DHT22;9072;51.918;4.380;2024-01-07T05:01:20;2.60;99.90
17893;DHT22;9072;51.918;4.380;2024-01-07T05:03:43;2.60;99.90
17893;DHT22;9072;51.918;4.380;2024-01-07T05:06:14;2.60;99.90
17893;DHT22;9072;51.918;4.380;2024-01-07T05:12:26;2.50;99.90
17893;DHT22;9072;51.918;4.380;2024-01-07T05:15:07;2.50;99.90
17893;DHT22;9072;51.918;4.380;2024-01-07T05:17:41;2.50;99.90
17893;DHT22;9072;51.918;4.380;2024-01-07T05:20:10;2.50;99.90
17893;DHT22;9072;51.918;4.380;2024-01-07T05:22:53;2.50;99.90
17893;DHT22;9072;51.918;4.380;2024-01-07T05:25:33;2.50;99.90
17893;DHT22;9072;51.918;4.380;2024-01-07T05:28:02;2.50;99.90
17893;DHT22;9072;51.918;4.380;2024-01-07T05:30:52;2.50;99.90
17893;DHT22;9072;51.918;4.380;2024-01-07T05:33:20;2.50;99.90
17893;DHT22;9072;51.918;4.380;2024-01-07T05:35:53;2.50;99.90
17893;DHT22;9072;51.918;4.380;2024-01-07T05:38:24;2.50;99.90
17893;DHT22;9072;51.918;4.380;2024-01-07T05:40:57;2.50;99.90
17893;DHT22;9072;51.918;4.380;2024-01-07T05:43:34;2.50;99.90
17893;DHT22;9072;51.918;4.380;2024-01-07T05:46:05;2.50;99.90
17893;DHT22;9072;51.918;4.380;2024-01-07T05:48:47;2.50;99.90
17893;DHT22;9072;51.918;4.380;2024-01-07T05:51:20;2.50;99.90
17893;DHT22;9072;51.918;4.380;2024-01-07T05:53:50;2.40;99.90
17893;DHT22;9072;51.918;4.380;2024-01-07T05:56:17;2.40;99.90
17893;DHT22;9072;51.918;4.380;2024-01-07T05:58:49;2.40;99.90
17893;DHT22;9072;51.918;4.380;2024-01-07T06:01:21;2.40;99.90
17893;DHT22;9072;51.918;4.380;2024-01-07T06:03:59;2.50;99.90
17893;DHT22;9072;51.918;4.380;2024-01-07T06:06:47;2.50;99.90
17893;DHT22;9072;51.918;4.380;2024-01-07T06:09:21;2.50;99.90
17893;DHT22;9072;51.918;4.380;2024-01-07T06:11:54;2.50;99.90
17893;DHT22;9072;51.918;4.380;2024-01-07T06:14:24;2.50;99.90
17893;DHT22;9072;51.918;4.380;2024-01-07T06:16:54;2.50;99.90
17893;DHT22;9072;51.918;4.380;2024-01-07T06:19:25;2.50;99.90
17893;DHT22;9072;51.918;4.380;2024-01-07T06:22:01;2.50;99.90
17893;DHT22;9072;51.918;4.380;2024-01-07T06:24:39;2.50;99.90
17893;DHT22;9072;51.918;4.380;2024-01-07T06:27:08;2.40;99.90
17893;DHT22;9072;51.918;4.380;2024-01-07T06:29:37;2.40;99.90
17893;DHT22;9072;51.918;4.380;2024-01-07T06:32:12;2.40;99.90
17893;DHT22;9072;51.918;4.380;2024-01-07T06:34:43;2.40;99.90
17893;DHT22;9072;51.918;4.380;2024-01-07T06:37:12;2.40;99.90
17893;DHT22;9072;51.918;4.380;2024-01-07T06:39:54;2.40;99.90
17893;DHT22;9072;51.918;4.380;2024-01-07T06:42:30;2.40;99.90
17893;DHT22;9072;51.918;4.380;2024-01-07T06:44:57;2.30;99.90
17893;DHT22;9072;51.918;4.380;2024-01-07T06:47:29;2.40;99.90
17893;DHT22;9072;51.918;4.380;2024-01-07T06:49:59;2.40;99.90
17893;DHT22;9072;51.918;4.380;2024-01-07T06:52:33;2.40;99.90
17893;DHT22;9072;51.918;4.380;2024-01-07T06:55:08;2.40;99.90
17893;DHT22;9072;51.918;4.380;2024-01-07T06:57:36;2.40;99.90
17893;DHT22;9072;51.918;4.380;2024-01-07T07:00:06;2.40;99.90
17893;DHT22;9072;51.918;4.380;2024-01-07T07:02:41;2.40;99.90
17893;DHT22;9072;51.918;4.380;2024-01-07T07:05:12;2.40;99.90
17893;DHT22;9072;51.918;4.380;2024-01-07T07:07:41;2.40;99.90
17893;DHT22;9072;51.918;4.380;2024-01-07T07:10:09;2.40;99.90
17893;DHT22;9072;51.918;4.380;2024-01-07T07:12:40;2.40;99.90
17893;DHT22;9072;51.918;4.380;2024-01-07T07:15:10;2.40;99.90
17893;DHT22;9072;51.918;4.380;2024-01-07T07:17:44;2.40;99.90
17893;DHT22;9072;51.918;4.380;2024-01-07T07:20:30;2.40;99.90
17893;DHT22;9072;51.918;4.380;2024-01-07T07:22:58;2.40;99.90
17893;DHT22;9072;51.918;4.380;2024-01-07T07:25:28;2.40;99.90
17893;DHT22;9072;51.918;4.380;2024-01-07T07:27:56;2.40;99.90
17893;DHT22;9072;51.918;4.380;2024-01-07T07:30:23;2.40;99.90
17893;DHT22;9072;51.918;4.380;2024-01-07T07:32:51;2.40;99.90
17893;DHT22;9072;51.918;4.380;2024-01-07T07:35:22;2.40;99.90
17893;DHT22;9072;51.918;4.380;2024-01-07T07:37:53;2.40;99.90
17893;DHT22;9072;51.918;4.380;2024-01-07T07:40:22;2.40;99.90
17893;DHT22;9072;51.918;4.380;2024-01-07T07:42:54;2.40;99.90
17893;DHT22;9072;51.918;4.380;2024-01-07T07:45:30;2.30;99.90
17893;DHT22;9072;51.918;4.380;2024-01-07T07:47:58;2.30;99.90
17893;DHT22;9072;51.918;4.380;2024-01-07T07:50:25;2.40;99.90
17893;DHT22;9072;51.918;4.380;2024-01-07T07:52:58;2.40;99.90
17893;DHT22;9072;51.918;4.380;2024-01-07T07:55:26;2.40;99.90
17893;DHT22;9072;51.918;4.380;2024-01-07T07:57:54;2.40;99.90
17893;DHT22;9072;51.918;4.380;2024-01-07T08:00:23;2.40;99.90
17893;DHT22;9072;51.918;4.380;2024-01-07T08:02:52;2.40;99.90
17893;DHT22;9072;51.918;4.380;2024-01-07T08:05:20;2.40;99.90
17893;DHT22;9072;51.918;4.380;2024-01-07T08:08:04;2.40;99.90
17893;DHT22;9072;51.918;4.380;2024-01-07T08:10:34;2.40;99.90
17893;DHT22;9072;51.918;4.380;2024-01-07T08:16:12;2.50;99.90
17893;DHT22;9072;51.918;4.380;2024-01-07T08:16:36;2.40;99.90
17893;DHT22;9072;51.918;4.380;2024-01-07T08:19:04;2.40;99.90
17893;DHT22;9072;51.918;4.380;2024-01-07T08:21:32;2.40;99.90
17893;DHT22;9072;51.918;4.380;2024-01-07T08:24:04;2.40;99.90
17893;DHT22;9072;51.918;4.380;2024-01-07T08:26:33;2.40;99.90
17893;DHT22;9072;51.918;4.380;2024-01-07T08:29:04;2.40;99.90
17893;DHT22;9072;51.918;4.380;2024-01-07T08:31:45;2.40;99.90
17893;DHT22;9072;51.918;4.380;2024-01-07T08:34:18;2.40;99.90
17893;DHT22;9072;51.918;4.380;2024-01-07T08:36:46;2.40;99.90
17893;DHT22;9072;51.918;4.380;2024-01-07T08:39:32;2.40;99.90
17893;DHT22;9072;51.918;4.380;2024-01-07T08:42:01;2.40;99.90
17893;DHT22;9072;51.918;4.380;2024-01-07T08:44:29;2.40;99.90
17893;DHT22;9072;51.918;4.380;2024-01-07T08:46:59;2.40;99.90
17893;DHT22;9072;51.918;4.380;2024-01-07T08:49:33;2.40;99.90
17893;DHT22;9072;51.918;4.380;2024-01-07T08:52:05;2.40;99.90
17893;DHT22;9072;51.918;4.380;2024-01-07T08:54:36;2.40;99.90
17893;DHT22;9072;51.918;4.380;2024-01-07T08:57:03;2.40;99.90
17893;DHT22;9072;51.918;4.380;2024-01-07T08:59:31;2.40;99.90
17893;DHT22;9072;51.918;4.380;2024-01-07T09:02:01;2.40;99.90
17893;DHT22;9072;51.918;4.380;2024-01-07T09:04:30;2.40;99.90
17893;DHT22;9072;51.918;4.380;2024-01-07T09:07:03;2.40;99.90
17893;DHT22;9072;51.918;4.380;2024-01-07T09:09:32;2.30;99.90
17893;DHT22;9072;51.918;4.380;2024-01-07T09:12:04;2.30;99.90
17893;DHT22;9072;51.918;4.380;2024-01-07T09:14:46;2.40;99.90
17893;DHT22;9072;51.918;4.380;2024-01-07T09:17:14;2.40;99.90
17893;DHT22;9072;51.918;4.380;2024-01-07T09:19:47;2.40;99.90
17893;DHT22;9072;51.918;4.380;2024-01-07T09:22:18;2.40;99.90
17893;DHT22;9072;51.918;4.380;2024-01-07T09:24:49;2.30;99.90
17893;DHT22;9072;51.918;4.380;2024-01-07T09:27:19;2.40;99.90
17893;DHT22;9072;51.918;4.380;2024-01-07T09:29:47;2.40;99.90
17893;DHT22;9072;51.918;4.380;2024-01-07T09:32:17;2.40;99.90
17893;DHT22;9072;51.918;4.380;2024-01-07T09:35:13;2.40;99.90
17893;DHT22;9072;51.918;4.380;2024-01-07T09:37:42;2.30;99.90
17893;DHT22;9072;51.918;4.380;2024-01-07T09:40:12;2.30;99.90
17893;DHT22;9072;51.918;4.380;2024-01-07T09:42:47;2.30;99.90
17893;DHT22;9072;51.918;4.380;2024-01-07T09:45:16;2.20;99.90
17893;DHT22;9072;51.918;4.380;2024-01-07T09:47:45;2.20;99.90
17893;DHT22;9072;51.918;4.380;2024-01-07T09:50:26;2.20;99.90
17893;DHT22;9072;51.918;4.380;2024-01-07T09:52:58;2.20;99.90
17893;DHT22;9072;51.918;4.380;2024-01-07T09:55:32;2.30;99.90
17893;DHT22;9072;51.918;4.380;2024-01-07T09:58:04;2.30;99.90
17893;DHT22;9072;51.918;4.380;2024-01-07T10:00:33;2.30;99.90
17893;DHT22;9072;51.918;4.380;2024-01-07T10:03:03;2.30;99.90
17893;DHT22;9072;51.918;4.380;2024-01-07T10:05:31;2.30;99.90
17893;DHT22;9072;51.918;4.380;2024-01-07T10:08:00;2.30;99.90
17893;DHT22;9072;51.918;4.380;2024-01-07T10:10:36;2.30;99.90
17893;DHT22;9072;51.918;4.380;2024-01-07T10:13:11;2.30;99.90
17893;DHT22;9072;51.918;4.380;2024-01-07T10:15:40;2.30;99.90
17893;DHT22;9072;51.918;4.380;2024-01-07T10:18:10;2.20;99.90
17893;DHT22;9072;51.918;4.380;2024-01-07T10:20:51;2.20;99.90
17893;DHT22;9072;51.918;4.380;2024-01-07T10:23:21;2.30;99.90
17893;DHT22;9072;51.918;4.380;2024-01-07T10:25:53;2.30;99.90
17893;DHT22;9072;51.918;4.380;2024-01-07T10:28:26;2.20;99.90
17893;DHT22;9072;51.918;4.380;2024-01-07T10:30:56;2.30;99.90
17893;DHT22;9072;51.918;4.380;2024-01-07T10:33:24;2.30;99.90
17893;DHT22;9072;51.918;4.380;2024-01-07T10:35:54;2.30;99.90
17893;DHT22;9072;51.918;4.380;2024-01-07T10:38:27;2.40;99.90
17893;DHT22;9072;51.918;4.380;2024-01-07T10:40:56;2.40;99.90
17893;DHT22;9072;51.918;4.380;2024-01-07T10:43:39;2.30;99.90
17893;DHT22;9072;51.918;4.380;2024-01-07T10:46:09;2.30;99.90
17893;DHT22;9072;51.918;4.380;2024-01-07T10:48:43;2.30;99.90
17893;DHT22;9072;51.918;4.380;2024-01-07T10:51:35;2.30;99.90
17893;DHT22;9072;51.918;4.380;2024-01-07T10:54:07;2.30;99.90
17893;DHT22;9072;51.918;4.380;2024-01-07T10:56:48;2.30;99.90
17893;DHT22;9072;51.918;4.380;2024-01-07T10:59:21;2.30;99.90
17893;DHT22;9072;51.918;4.380;2024-01-07T11:02:30;2.30;99.90
17893;DHT22;9072;51.918;4.380;2024-01-07T11:05:28;2.40;99.90
17893;DHT22;9072;51.918;4.380;2024-01-07T11:08:11;2.40;99.90
17893;DHT22;9072;51.918;4.380;2024-01-07T11:10:50;2.40;99.90
17893;DHT22;9072;51.918;4.380;2024-01-07T11:13:51;2.40;99.90
17893;DHT22;9072;51.918;4.380;2024-01-07T11:16:53;2.50;99.90
17893;DHT22;9072;51.918;4.380;2024-01-07T11:19:52;2.50;99.90
17893;DHT22;9072;51.918;4.380;2024-01-07T11:22:27;2.40;99.90
17893;DHT22;9072;51.918;4.380;2024-01-07T11:25:44;2.40;99.90
17893;DHT22;9072;51.918;4.380;2024-01-07T11:28:53;2.40;99.90
17893;DHT22;9072;51.918;4.380;2024-01-07T11:31:43;2.30;99.90
17893;DHT22;9072;51.918;4.380;2024-01-07T11:37:47;2.30;99.90
17893;DHT22;9072;51.918;4.380;2024-01-07T11:40:57;2.30;99.90
17893;DHT22;9072;51.918;4.380;2024-01-07T11:43:09;2.30;99.90
17893;DHT22;9072;51.918;4.380;2024-01-07T11:45:44;2.40;99.90
17893;DHT22;9072;51.918;4.380;2024-01-07T11:48:11;2.20;99.90
17893;DHT22;9072;51.918;4.380;2024-01-07T11:50:45;2.30;99.90
17893;DHT22;9072;51.918;4.380;2024-01-07T11:53:25;2.30;99.90
17893;DHT22;9072;51.918;4.380;2024-01-07T11:55:59;2.40;99.90
17893;DHT22;9072;51.918;4.380;2024-01-07T11:58:29;2.40;99.90
17893;DHT22;9072;51.918;4.380;2024-01-07T12:01:04;2.40;99.90
17893;DHT22;9072;51.918;4.380;2024-01-07T12:03:38;2.40;99.90
17893;DHT22;9072;51.918;4.380;2024-01-07T12:06:18;2.30;99.90
17893;DHT22;9072;51.918;4.380;2024-01-07T12:09:19;2.40;99.90
17893;DHT22;9072;51.918;4.380;2024-01-07T12:11:54;2.40;99.90
17893;DHT22;9072;51.918;4.380;2024-01-07T12:14:37;2.40;99.90
17893;DHT22;9072;51.918;4.380;2024-01-07T12:17:16;2.40;99.90
17893;DHT22;9072;51.918;4.380;2024-01-07T12:19:54;2.30;99.90
17893;DHT22;9072;51.918;4.380;2024-01-07T12:22:38;2.30;99.90
17893;DHT22;9072;51.918;4.380;2024-01-07T12:25:22;2.30;99.90
17893;DHT22;9072;51.918;4.380;2024-01-07T12:27:58;2.30;99.90
17893;DHT22;9072;51.918;4.380;2024-01-07T12:30:33;2.30;99.90
17893;DHT22;9072;51.918;4.380;2024-01-07T12:33:00;2.30;99.90
17893;DHT22;9072;51.918;4.380;2024-01-07T12:35:36;2.30;99.90
17893;DHT22;9072;51.918;4.380;2024-01-07T12:38:07;2.30;99.90
17893;DHT22;9072;51.918;4.380;2024-01-07T12:40:39;2.30;99.90
17893;DHT22;9072;51.918;4.380;2024-01-07T12:43:13;2.30;99.90
17893;DHT22;9072;51.918;4.380;2024-01-07T12:45:41;2.30;99.90
17893;DHT22;9072;51.918;4.380;2024-01-07T12:48:15;2.40;99.90
17893;DHT22;9072;51.918;4.380;2024-01-07T12:50:47;2.40;99.90
17893;DHT22;9072;51.918;4.380;2024-01-07T12:53:33;2.30;99.90
17893;DHT22;9072;51.918;4.380;2024-01-07T12:56:03;2.30;99.90
17893;DHT22;9072;51.918;4.380;2024-01-07T12:58:32;2.30;99.90
17893;DHT22;9072;51.918;4.380;2024-01-07T13:01:01;2.20;99.90
17893;DHT22;9072;51.918;4.380;2024-01-07T13:03:29;2.10;99.90
17893;DHT22;9072;51.918;4.380;2024-01-07T13:05:56;2.20;99.90
17893;DHT22;9072;51.918;4.380;2024-01-07T13:08:24;2.20;99.90
17893;DHT22;9072;51.918;4.380;2024-01-07T13:10:53;2.30;99.90
17893;DHT22;9072;51.918;4.380;2024-01-07T13:13:22;2.40;99.90
17893;DHT22;9072;51.918;4.380;2024-01-07T13:15:49;2.40;99.90
17893;DHT22;9072;51.918;4.380;2024-01-07T13:18:24;2.50;99.90
17893;DHT22;9072;51.918;4.380;2024-01-07T13:20:51;2.50;99.90
17893;DHT22;9072;51.918;4.380;2024-01-07T13:23:19;2.50;99.90
17893;DHT22;9072;51.918;4.380;2024-01-07T13:25:48;2.50;99.90
17893;DHT22;9072;51.918;4.380;2024-01-07T13:28:15;2.50;99.90
17893;DHT22;9072;51.918;4.380;2024-01-07T13:30:45;2.40;99.90
17893;DHT22;9072;51.918;4.380;2024-01-07T13:33:27;2.40;99.90
17893;DHT22;9072;51.918;4.380;2024-01-07T13:36:00;2.40;99.90
17893;DHT22;9072;51.918;4.380;2024-01-07T13:38:28;2.40;99.90
17893;DHT22;9072;51.918;4.380;2024-01-07T13:40:56;2.40;99.90
17893;DHT22;9072;51.918;4.380;2024-01-07T13:43:23;2.50;99.90
17893;DHT22;9072;51.918;4.380;2024-01-07T13:45:52;2.40;99.90
17893;DHT22;9072;51.918;4.380;2024-01-07T13:48:19;2.40;99.90
17893;DHT22;9072;51.918;4.380;2024-01-07T13:50:49;2.40;99.90
17893;DHT22;9072;51.918;4.380;2024-01-07T13:53:18;2.30;99.90
17893;DHT22;9072;51.918;4.380;2024-01-07T13:55:45;2.40;99.90
17893;DHT22;9072;51.918;4.380;2024-01-07T13:58:14;2.40;99.90
17893;DHT22;9072;51.918;4.380;2024-01-07T14:00:42;2.30;99.90
17893;DHT22;9072;51.918;4.380;2024-01-07T14:03:10;2.40;99.90
17893;DHT22;9072;51.918;4.380;2024-01-07T14:05:38;2.40;99.90
17893;DHT22;9072;51.918;4.380;2024-01-07T14:08:05;2.30;99.90
17893;DHT22;9072;51.918;4.380;2024-01-07T14:10:33;2.30;99.90
17893;DHT22;9072;51.918;4.380;2024-01-07T14:13:00;2.20;99.90
17893;DHT22;9072;51.918;4.380;2024-01-07T14:15:30;2.20;99.90
17893;DHT22;9072;51.918;4.380;2024-01-07T14:17:59;2.20;99.90
17893;DHT22;9072;51.918;4.380;2024-01-07T14:20:27;2.10;99.90
17893;DHT22;9072;51.918;4.380;2024-01-07T14:22:55;2.10;99.90
17893;DHT22;9072;51.918;4.380;2024-01-07T14:25:22;2.00;99.90
17893;DHT22;9072;51.918;4.380;2024-01-07T14:27:49;2.00;99.90
17893;DHT22;9072;51.918;4.380;2024-01-07T14:30:16;1.90;99.90
17893;DHT22;9072;51.918;4.380;2024-01-07T14:32:43;1.90;99.90
17893;DHT22;9072;51.918;4.380;2024-01-07T14:35:11;1.90;99.90
17893;DHT22;9072;51.918;4.380;2024-01-07T14:37:40;1.90;99.90
17893;DHT22;9072;51.918;4.380;2024-01-07T14:40:08;1.90;99.90
17893;DHT22;9072;51.918;4.380;2024-01-07T14:42:37;1.80;99.90
17893;DHT22;9072;51.918;4.380;2024-01-07T14:45:05;1.80;99.90
17893;DHT22;9072;51.918;4.380;2024-01-07T14:47:32;1.80;99.90
17893;DHT22;9072;51.918;4.380;2024-01-07T14:50:00;1.70;99.90
17893;DHT22;9072;51.918;4.380;2024-01-07T14:52:28;1.70;99.90
17893;DHT22;9072;51.918;4.380;2024-01-07T14:54:57;1.70;99.90
17893;DHT22;9072;51.918;4.380;2024-01-07T14:57:26;1.70;99.90
17893;DHT22;9072;51.918;4.380;2024-01-07T14:59:55;1.70;99.90
17893;DHT22;9072;51.918;4.380;2024-01-07T15:02:22;1.70;99.90
17893;DHT22;9072;51.918;4.380;2024-01-07T15:04:51;1.70;99.90
17893;DHT22;9072;51.918;4.380;2024-01-07T15:07:20;1.60;99.90
17893;DHT22;9072;51.918;4.380;2024-01-07T15:09:49;1.60;99.90
17893;DHT22;9072;51.918;4.380;2024-01-07T15:12:20;1.60;99.90
17893;DHT22;9072;51.918;4.380;2024-01-07T15:14:48;1.50;99.90
17893;DHT22;9072;51.918;4.380;2024-01-07T15:17:16;1.50;99.90
17893;DHT22;9072;51.918;4.380;2024-01-07T15:19:44;1.50;99.90
17893;DHT22;9072;51.918;4.380;2024-01-07T15:22:13;1.50;99.90
17893;DHT22;9072;51.918;4.380;2024-01-07T15:24:42;1.40;99.90
17893;DHT22;9072;51.918;4.380;2024-01-07T15:27:11;1.50;99.90
17893;DHT22;9072;51.918;4.380;2024-01-07T15:29:40;1.40;99.90
17893;DHT22;9072;51.918;4.380;2024-01-07T15:32:09;1.40;99.90
17893;DHT22;9072;51.918;4.380;2024-01-07T15:34:36;1.40;99.90
17893;DHT22;9072;51.918;4.380;2024-01-07T15:37:04;1.40;99.90
17893;DHT22;9072;51.918;4.380;2024-01-07T15:39:31;1.40;99.90
17893;DHT22;9072;51.918;4.380;2024-01-07T15:42:00;1.40;99.90
17893;DHT22;9072;51.918;4.380;2024-01-07T15:44:27;1.40;99.90
17893;DHT22;9072;51.918;4.380;2024-01-07T15:46:58;1.40;99.90
17893;DHT22;9072;51.918;4.380;2024-01-07T15:49:27;1.30;99.90
17893;DHT22;9072;51.918;4.380;2024-01-07T15:51:55;1.30;99.90
17893;DHT22;9072;51.918;4.380;2024-01-07T15:54:22;1.30;99.90
17893;DHT22;9072;51.918;4.380;2024-01-07T15:56:49;1.30;99.90
17893;DHT22;9072;51.918;4.380;2024-01-07T15:59:16;1.30;99.90
17893;DHT22;9072;51.918;4.380;2024-01-07T16:01:46;1.20;99.90
17893;DHT22;9072;51.918;4.380;2024-01-07T16:04:19;1.20;99.90
17893;DHT22;9072;51.918;4.380;2024-01-07T16:06:46;1.20;99.90
17893;DHT22;9072;51.918;4.380;2024-01-07T16:09:14;1.20;99.90
17893;DHT22;9072;51.918;4.380;2024-01-07T16:11:42;1.20;99.90
17893;DHT22;9072;51.918;4.380;2024-01-07T16:14:11;1.20;99.90
17893;DHT22;9072;51.918;4.380;2024-01-07T16:16:41;1.20;99.90
17893;DHT22;9072;51.918;4.380;2024-01-07T16:19:10;1.10;99.90
17893;DHT22;9072;51.918;4.380;2024-01-07T16:21:54;1.10;99.90
17893;DHT22;9072;51.918;4.380;2024-01-07T16:24:23;1.10;99.90
17893;DHT22;9072;51.918;4.380;2024-01-07T16:26:55;1.10;99.90
17893;DHT22;9072;51.918;4.380;2024-01-07T16:29:36;1.00;99.90
17893;DHT22;9072;51.918;4.380;2024-01-07T16:32:13;1.10;99.90
17893;DHT22;9072;51.918;4.380;2024-01-07T16:34:40;1.10;99.90
17893;DHT22;9072;51.918;4.380;2024-01-07T16:37:11;1.10;99.90
17893;DHT22;9072;51.918;4.380;2024-01-07T16:39:42;1.00;99.90
17893;DHT22;9072;51.918;4.380;2024-01-07T16:42:12;1.00;99.90
17893;DHT22;9072;51.918;4.380;2024-01-07T16:44:42;1.00;99.90
17893;DHT22;9072;51.918;4.380;2024-01-07T16:47:12;1.00;99.90
17893;DHT22;9072;51.918;4.380;2024-01-07T16:49:44;1.00;99.90
17893;DHT22;9072;51.918;4.380;2024-01-07T16:52:16;0.90;99.90